sensor_id;sensor_type;location;lat;lon;timestamp;temperature;humidity
70820;DHT22;58439;51.046;13.692;2022-08-11T00:01:24;19.20;40.10
70820;DHT22;58439;51.046;13.692;2022-08-11T00:03:58;19.20;40.20
70820;DHT22;58439;51.046;13.692;2022-08-11T00:06:36;19.10;40.20
70820;DHT22;58439;51.046;13.692;2022-08-11T00:09:08;19.10;40.40
70820;DHT22;58439;51.046;13.692;2022-08-11T00:11:44;18.90;40.70
70820;DHT22;58439;51.046;13.692;2022-08-11T00:14:17;18.80;41.20
70820;DHT22;58439;51.046;13.692;2022-08-11T00:16:59;18.80;41.50
70820;DHT22;58439;51.046;13.692;2022-08-11T00:19:46;18.80;41.70
70820;DHT22;58439;51.046;13.692;2022-08-11T00:22:41;18.80;42.00
70820;DHT22;58439;51.046;13.692;2022-08-11T00:25:17;18.70;42.10
70820;DHT22;58439;51.046;13.692;2022-08-11T00:27:46;18.70;42.20
70820;DHT22;58439;51.046;13.692;2022-08-11T00:30:15;18.70;42.30
70820;DHT22;58439;51.046;13.692;2022-08-11T00:32:51;18.70;42.40
70820;DHT22;58439;51.046;13.692;2022-08-11T00:35:25;18.60;42.60
70820;DHT22;58439;51.046;13.692;2022-08-11T00:38:22;18.50;42.90
70820;DHT22;58439;51.046;13.692;2022-08-11T00:41:21;18.50;42.90
70820;DHT22;58439;51.046;13.692;2022-08-11T00:44:33;18.50;42.70
70820;DHT22;58439;51.046;13.692;2022-08-11T00:53:29;18.40;42.90
70820;DHT22;58439;51.046;13.692;2022-08-11T00:56:38;18.50;43.00
70820;DHT22;58439;51.046;13.692;2022-08-11T00:59:22;18.50;42.80
70820;DHT22;58439;51.046;13.692;2022-08-11T01:02:18;18.40;42.80
70820;DHT22;58439;51.046;13.692;2022-08-11T01:18:07;18.30;44.20
70820;DHT22;58439;51.046;13.692;2022-08-11T01:27:35;18.10;44.50
70820;DHT22;58439;51.046;13.692;2022-08-11T01:30:47;17.90;45.00
70820;DHT22;58439;51.046;13.692;2022-08-11T01:34:08;17.90;45.20
70820;DHT22;58439;51.046;13.692;2022-08-11T01:37:05;17.80;45.60
70820;DHT22;58439;51.046;13.692;2022-08-11T01:46:35;17.70;46.30
70820;DHT22;58439;51.046;13.692;2022-08-11T01:52:24;17.70;46.60
70820;DHT22;58439;51.046;13.692;2022-08-11T01:58:25;17.60;46.50
70820;DHT22;58439;51.046;13.692;2022-08-11T02:01:26;17.60;46.70
70820;DHT22;58439;51.046;13.692;2022-08-11T02:04:52;17.60;46.70
70820;DHT22;58439;51.046;13.692;2022-08-11T02:07:53;17.60;46.60
70820;DHT22;58439;51.046;13.692;2022-08-11T02:10:43;17.70;46.60
70820;DHT22;58439;51.046;13.692;2022-08-11T02:13:45;17.60;46.60
70820;DHT22;58439;51.046;13.692;2022-08-11T02:22:50;17.40;47.50
70820;DHT22;58439;51.046;13.692;2022-08-11T02:26:08;17.20;47.50
70820;DHT22;58439;51.046;13.692;2022-08-11T02:29:20;17.10;47.90
70820;DHT22;58439;51.046;13.692;2022-08-11T02:32:19;17.10;48.40
70820;DHT22;58439;51.046;13.692;2022-08-11T02:35:45;17.10;48.30
70820;DHT22;58439;51.046;13.692;2022-08-11T02:41:44;17.10;48.20
70820;DHT22;58439;51.046;13.692;2022-08-11T02:45:26;17.10;48.40
70820;DHT22;58439;51.046;13.692;2022-08-11T03:03:31;17.10;48.70
70820;DHT22;58439;51.046;13.692;2022-08-11T03:17:29;16.80;49.20
70820;DHT22;58439;51.046;13.692;2022-08-11T03:23:36;16.70;50.00
70820;DHT22;58439;51.046;13.692;2022-08-11T03:26:14;16.70;50.00
70820;DHT22;58439;51.046;13.692;2022-08-11T03:29:10;16.70;50.40
70820;DHT22;58439;51.046;13.692;2022-08-11T03:34:54;16.70;50.80
70820;DHT22;58439;51.046;13.692;2022-08-11T03:40:35;16.60;50.90
70820;DHT22;58439;51.046;13.692;2022-08-11T03:43:51;16.60;50.80
70820;DHT22;58439;51.046;13.692;2022-08-11T03:46:57;16.50;51.00
70820;DHT22;58439;51.046;13.692;2022-08-11T03:52:57;16.40;51.40
70820;DHT22;58439;51.046;13.692;2022-08-11T03:56:05;16.30;51.70
70820;DHT22;58439;51.046;13.692;2022-08-11T03:59:26;16.30;52.00
70820;DHT22;58439;51.046;13.692;2022-08-11T04:06:15;16.40;52.20
70820;DHT22;58439;51.046;13.692;2022-08-11T04:12:14;16.30;51.90
70820;DHT22;58439;51.046;13.692;2022-08-11T04:25:15;16.50;51.70
70820;DHT22;58439;51.046;13.692;2022-08-11T04:38:04;16.70;50.90
70820;DHT22;58439;51.046;13.692;2022-08-11T04:48:57;16.60;50.80
70820;DHT22;58439;51.046;13.692;2022-08-11T04:58:08;16.80;50.90
70820;DHT22;58439;51.046;13.692;2022-08-11T05:01:26;16.90;50.70
70820;DHT22;58439;51.046;13.692;2022-08-11T05:04:40;17.00;50.40
70820;DHT22;58439;51.046;13.692;2022-08-11T05:11:34;17.10;50.30
70820;DHT22;58439;51.046;13.692;2022-08-11T05:16:59;17.40;49.40
70820;DHT22;58439;51.046;13.692;2022-08-11T05:19:50;17.50;48.70
70820;DHT22;58439;51.046;13.692;2022-08-11T05:22:43;17.60;48.70
70820;DHT22;58439;51.046;13.692;2022-08-11T05:25:35;17.70;48.50
70820;DHT22;58439;51.046;13.692;2022-08-11T05:28:54;17.70;48.10
70820;DHT22;58439;51.046;13.692;2022-08-11T05:31:59;17.70;48.10
70820;DHT22;58439;51.046;13.692;2022-08-11T05:34:51;17.70;48.00
70820;DHT22;58439;51.046;13.692;2022-08-11T05:40:11;17.90;47.50
70820;DHT22;58439;51.046;13.692;2022-08-11T05:43:00;17.90;47.50
70820;DHT22;58439;51.046;13.692;2022-08-11T05:46:04;18.10;47.00
70820;DHT22;58439;51.046;13.692;2022-08-11T05:48:52;18.10;46.90
70820;DHT22;58439;51.046;13.692;2022-08-11T05:51:40;18.20;46.30
70820;DHT22;58439;51.046;13.692;2022-08-11T05:54:31;18.40;46.10
70820;DHT22;58439;51.046;13.692;2022-08-11T05:57:28;18.60;45.80
70820;DHT22;58439;51.046;13.692;2022-08-11T06:00:18;18.80;45.30
70820;DHT22;58439;51.046;13.692;2022-08-11T06:02:50;18.90;44.50
70820;DHT22;58439;51.046;13.692;2022-08-11T06:05:33;18.90;44.10
70820;DHT22;58439;51.046;13.692;2022-08-11T06:08:11;19.00;44.10
70820;DHT22;58439;51.046;13.692;2022-08-11T06:10:52;19.10;43.80
70820;DHT22;58439;51.046;13.692;2022-08-11T06:13:28;19.30;43.60
70820;DHT22;58439;51.046;13.692;2022-08-11T06:15:56;19.40;43.10
70820;DHT22;58439;51.046;13.692;2022-08-11T06:18:30;19.60;42.60
70820;DHT22;58439;51.046;13.692;2022-08-11T06:20:58;19.70;42.40
70820;DHT22;58439;51.046;13.692;2022-08-11T06:23:31;19.80;42.10
70820;DHT22;58439;51.046;13.692;2022-08-11T06:26:10;19.90;41.80
70820;DHT22;58439;51.046;13.692;2022-08-11T06:28:43;20.10;41.30
70820;DHT22;58439;51.046;13.692;2022-08-11T06:31:21;20.20;41.00
70820;DHT22;58439;51.046;13.692;2022-08-11T06:36:43;20.30;40.40
70820;DHT22;58439;51.046;13.692;2022-08-11T06:39:32;20.40;39.90
70820;DHT22;58439;51.046;13.692;2022-08-11T06:42:47;20.50;39.80
70820;DHT22;58439;51.046;13.692;2022-08-11T06:47:55;20.80;39.10
70820;DHT22;58439;51.046;13.692;2022-08-11T06:50:50;20.90;38.70
70820;DHT22;58439;51.046;13.692;2022-08-11T06:54:14;20.90;38.60
70820;DHT22;58439;51.046;13.692;2022-08-11T06:57:26;21.10;38.30
70820;DHT22;58439;51.046;13.692;2022-08-11T07:05:21;21.40;37.20
70820;DHT22;58439;51.046;13.692;2022-08-11T07:08:24;21.60;36.10
70820;DHT22;58439;51.046;13.692;2022-08-11T07:11:54;21.70;36.00
70820;DHT22;58439;51.046;13.692;2022-08-11T07:15:31;21.80;35.40
70820;DHT22;58439;51.046;13.692;2022-08-11T07:18:46;22.10;35.30
70820;DHT22;58439;51.046;13.692;2022-08-11T07:21:47;22.20;34.60
70820;DHT22;58439;51.046;13.692;2022-08-11T07:25:49;22.30;34.60
70820;DHT22;58439;51.046;13.692;2022-08-11T07:42:04;23.00;33.10
70820;DHT22;58439;51.046;13.692;2022-08-11T07:46:02;23.20;32.50
70820;DHT22;58439;51.046;13.692;2022-08-11T07:49:34;23.30;32.20
70820;DHT22;58439;51.046;13.692;2022-08-11T07:57:00;23.70;31.40
70820;DHT22;58439;51.046;13.692;2022-08-11T08:00:42;23.90;31.00
70820;DHT22;58439;51.046;13.692;2022-08-11T08:04:26;24.00;30.30
70820;DHT22;58439;51.046;13.692;2022-08-11T08:07:23;24.20;30.10
70820;DHT22;58439;51.046;13.692;2022-08-11T08:10:44;24.30;29.50
70820;DHT22;58439;51.046;13.692;2022-08-11T08:13:48;24.50;29.30
70820;DHT22;58439;51.046;13.692;2022-08-11T08:16:36;24.50;29.50
70820;DHT22;58439;51.046;13.692;2022-08-11T08:19:22;24.60;29.30
70820;DHT22;58439;51.046;13.692;2022-08-11T08:21:50;24.80;29.00
70820;DHT22;58439;51.046;13.692;2022-08-11T08:24:18;24.80;28.50
70820;DHT22;58439;51.046;13.692;2022-08-11T08:26:48;24.90;28.50
70820;DHT22;58439;51.046;13.692;2022-08-11T08:29:31;25.00;27.90
70820;DHT22;58439;51.046;13.692;2022-08-11T08:32:19;25.10;27.50
70820;DHT22;58439;51.046;13.692;2022-08-11T08:34:51;25.00;27.40
70820;DHT22;58439;51.046;13.692;2022-08-11T08:37:21;25.00;27.40
70820;DHT22;58439;51.046;13.692;2022-08-11T08:40:13;25.10;27.10
70820;DHT22;58439;51.046;13.692;2022-08-11T08:42:48;25.40;26.90
70820;DHT22;58439;51.046;13.692;2022-08-11T08:50:12;25.80;26.30
70820;DHT22;58439;51.046;13.692;2022-08-11T08:59:12;26.10;25.70
70820;DHT22;58439;51.046;13.692;2022-08-11T09:07:49;26.50;25.00
70820;DHT22;58439;51.046;13.692;2022-08-11T09:16:06;26.80;24.10
70820;DHT22;58439;51.046;13.692;2022-08-11T09:34:45;27.50;22.30
70820;DHT22;58439;51.046;13.692;2022-08-11T09:43:51;27.10;22.40
70820;DHT22;58439;51.046;13.692;2022-08-11T09:47:31;27.40;22.10
70820;DHT22;58439;51.046;13.692;2022-08-11T09:59:33;27.50;22.40
70820;DHT22;58439;51.046;13.692;2022-08-11T10:04:48;27.90;21.60
70820;DHT22;58439;51.046;13.692;2022-08-11T10:08:53;28.10;21.40
70820;DHT22;58439;51.046;13.692;2022-08-11T10:17:52;28.20;21.40
70820;DHT22;58439;51.046;13.692;2022-08-11T10:25:25;27.80;21.70
70820;DHT22;58439;51.046;13.692;2022-08-11T10:28:17;27.80;21.70
70820;DHT22;58439;51.046;13.692;2022-08-11T10:31:04;27.70;20.90
70820;DHT22;58439;51.046;13.692;2022-08-11T10:33:57;27.80;20.90
70820;DHT22;58439;51.046;13.692;2022-08-11T10:36:32;27.90;20.80
70820;DHT22;58439;51.046;13.692;2022-08-11T10:39:03;28.10;21.00
70820;DHT22;58439;51.046;13.692;2022-08-11T10:41:33;28.20;21.00
70820;DHT22;58439;51.046;13.692;2022-08-11T10:44:42;28.30;20.70
70820;DHT22;58439;51.046;13.692;2022-08-11T10:47:13;28.50;20.60
70820;DHT22;58439;51.046;13.692;2022-08-11T10:50:07;28.70;20.30
70820;DHT22;58439;51.046;13.692;2022-08-11T10:52:57;28.80;19.80
70820;DHT22;58439;51.046;13.692;2022-08-11T10:55:44;28.70;19.20
70820;DHT22;58439;51.046;13.692;2022-08-11T10:58:32;28.80;19.10
70820;DHT22;58439;51.046;13.692;2022-08-11T11:01:15;28.90;18.90
70820;DHT22;58439;51.046;13.692;2022-08-11T11:04:07;29.10;18.30
70820;DHT22;58439;51.046;13.692;2022-08-11T11:09:47;29.50;18.40
70820;DHT22;58439;51.046;13.692;2022-08-11T11:15:19;30.00;17.20
70820;DHT22;58439;51.046;13.692;2022-08-11T11:18:20;30.30;17.30
70820;DHT22;58439;51.046;13.692;2022-08-11T11:21:05;30.80;17.00
70820;DHT22;58439;51.046;13.692;2022-08-11T11:32:15;33.50;15.00
70820;DHT22;58439;51.046;13.692;2022-08-11T11:37:40;33.70;14.10
70820;DHT22;58439;51.046;13.692;2022-08-11T11:40:32;34.00;13.50
70820;DHT22;58439;51.046;13.692;2022-08-11T11:43:03;34.20;13.40
70820;DHT22;58439;51.046;13.692;2022-08-11T11:45:31;34.40;13.20
70820;DHT22;58439;51.046;13.692;2022-08-11T11:47:59;34.70;12.90
70820;DHT22;58439;51.046;13.692;2022-08-11T11:50:32;34.80;12.60
70820;DHT22;58439;51.046;13.692;2022-08-11T11:53:09;35.00;12.10
70820;DHT22;58439;51.046;13.692;2022-08-11T11:55:38;35.10;11.90
70820;DHT22;58439;51.046;13.692;2022-08-11T11:58:06;35.30;12.00
70820;DHT22;58439;51.046;13.692;2022-08-11T12:00:54;35.60;11.70
70820;DHT22;58439;51.046;13.692;2022-08-11T12:03:46;35.40;11.60
70820;DHT22;58439;51.046;13.692;2022-08-11T12:06:17;35.30;11.60
70820;DHT22;58439;51.046;13.692;2022-08-11T12:08:49;35.30;11.10
70820;DHT22;58439;51.046;13.692;2022-08-11T12:11:19;35.30;10.90
70820;DHT22;58439;51.046;13.692;2022-08-11T12:14:10;35.40;10.80
70820;DHT22;58439;51.046;13.692;2022-08-11T12:16:39;35.40;10.90
70820;DHT22;58439;51.046;13.692;2022-08-11T12:19:14;35.50;10.50
70820;DHT22;58439;51.046;13.692;2022-08-11T12:21:44;35.60;10.60
70820;DHT22;58439;51.046;13.692;2022-08-11T12:24:33;35.90;10.40
70820;DHT22;58439;51.046;13.692;2022-08-11T12:27:21;36.00;9.80
70820;DHT22;58439;51.046;13.692;2022-08-11T12:30:03;35.70;9.80
70820;DHT22;58439;51.046;13.692;2022-08-11T12:32:41;35.40;9.50
70820;DHT22;58439;51.046;13.692;2022-08-11T12:35:13;35.20;9.60
70820;DHT22;58439;51.046;13.692;2022-08-11T12:37:48;35.00;9.70
70820;DHT22;58439;51.046;13.692;2022-08-11T12:40:31;34.80;9.90
70820;DHT22;58439;51.046;13.692;2022-08-11T12:43:43;35.00;10.00
70820;DHT22;58439;51.046;13.692;2022-08-11T12:46:36;35.20;9.80
70820;DHT22;58439;51.046;13.692;2022-08-11T12:49:20;35.10;9.60
70820;DHT22;58439;51.046;13.692;2022-08-11T12:52:18;35.20;9.70
70820;DHT22;58439;51.046;13.692;2022-08-11T12:55:08;35.80;9.70
70820;DHT22;58439;51.046;13.692;2022-08-11T12:57:46;36.10;9.40
70820;DHT22;58439;51.046;13.692;2022-08-11T13:00:36;36.00;9.50
70820;DHT22;58439;51.046;13.692;2022-08-11T13:03:23;36.00;9.50
70820;DHT22;58439;51.046;13.692;2022-08-11T13:06:18;36.40;9.30
70820;DHT22;58439;51.046;13.692;2022-08-11T13:08:50;36.60;9.40
70820;DHT22;58439;51.046;13.692;2022-08-11T13:11:18;36.60;9.10
70820;DHT22;58439;51.046;13.692;2022-08-11T13:14:25;36.70;9.10
70820;DHT22;58439;51.046;13.692;2022-08-11T13:16:59;36.80;8.90
70820;DHT22;58439;51.046;13.692;2022-08-11T13:19:46;37.10;8.90
70820;DHT22;58439;51.046;13.692;2022-08-11T13:22:17;37.60;9.50
70820;DHT22;58439;51.046;13.692;2022-08-11T13:24:47;37.30;8.40
70820;DHT22;58439;51.046;13.692;2022-08-11T13:27:17;36.50;8.70
70820;DHT22;58439;51.046;13.692;2022-08-11T13:29:48;35.70;8.70
70820;DHT22;58439;51.046;13.692;2022-08-11T13:32:19;35.80;9.00
70820;DHT22;58439;51.046;13.692;2022-08-11T13:34:51;36.70;8.80
70820;DHT22;58439;51.046;13.692;2022-08-11T13:37:20;37.50;8.20
70820;DHT22;58439;51.046;13.692;2022-08-11T13:40:10;37.90;8.20
70820;DHT22;58439;51.046;13.692;2022-08-11T13:42:39;38.50;8.30
70820;DHT22;58439;51.046;13.692;2022-08-11T13:45:08;38.70;8.10
70820;DHT22;58439;51.046;13.692;2022-08-11T13:47:42;38.90;8.00
70820;DHT22;58439;51.046;13.692;2022-08-11T13:50:10;39.00;7.90
70820;DHT22;58439;51.046;13.692;2022-08-11T13:52:40;39.20;7.90
70820;DHT22;58439;51.046;13.692;2022-08-11T13:55:11;39.30;7.80
70820;DHT22;58439;51.046;13.692;2022-08-11T13:58:12;39.10;7.50
70820;DHT22;58439;51.046;13.692;2022-08-11T14:00:59;38.80;7.70
70820;DHT22;58439;51.046;13.692;2022-08-11T14:03:48;38.80;7.90
70820;DHT22;58439;51.046;13.692;2022-08-11T14:06:41;38.90;8.20
70820;DHT22;58439;51.046;13.692;2022-08-11T14:09:13;39.20;8.80
70820;DHT22;58439;51.046;13.692;2022-08-11T14:11:45;39.10;8.00
70820;DHT22;58439;51.046;13.692;2022-08-11T14:15:04;39.20;8.00
70820;DHT22;58439;51.046;13.692;2022-08-11T14:17:38;39.40;8.00
70820;DHT22;58439;51.046;13.692;2022-08-11T14:20:17;39.50;8.00
70820;DHT22;58439;51.046;13.692;2022-08-11T14:23:05;39.40;8.00
70820;DHT22;58439;51.046;13.692;2022-08-11T14:25:33;39.10;8.20
70820;DHT22;58439;51.046;13.692;2022-08-11T14:28:20;38.80;8.30
70820;DHT22;58439;51.046;13.692;2022-08-11T14:31:02;38.70;8.30
70820;DHT22;58439;51.046;13.692;2022-08-11T14:33:32;38.70;8.60
70820;DHT22;58439;51.046;13.692;2022-08-11T14:36:26;38.70;8.70
70820;DHT22;58439;51.046;13.692;2022-08-11T14:38:57;38.50;8.50
70820;DHT22;58439;51.046;13.692;2022-08-11T14:41:24;38.60;8.50
70820;DHT22;58439;51.046;13.692;2022-08-11T14:44:34;38.80;8.70
70820;DHT22;58439;51.046;13.692;2022-08-11T14:47:33;38.80;9.10
70820;DHT22;58439;51.046;13.692;2022-08-11T14:50:05;38.80;8.70
70820;DHT22;58439;51.046;13.692;2022-08-11T14:52:42;38.70;8.70
70820;DHT22;58439;51.046;13.692;2022-08-11T14:55:15;38.40;8.80
70820;DHT22;58439;51.046;13.692;2022-08-11T14:58:04;38.10;8.80
70820;DHT22;58439;51.046;13.692;2022-08-11T15:00:35;38.00;9.30
70820;DHT22;58439;51.046;13.692;2022-08-11T15:03:10;38.10;9.10
70820;DHT22;58439;51.046;13.692;2022-08-11T15:08:28;38.70;8.50
70820;DHT22;58439;51.046;13.692;2022-08-11T15:11:29;38.60;8.50
70820;DHT22;58439;51.046;13.692;2022-08-11T15:14:19;38.60;8.50
70820;DHT22;58439;51.046;13.692;2022-08-11T15:17:09;38.20;8.60
70820;DHT22;58439;51.046;13.692;2022-08-11T15:19:43;38.00;8.90
70820;DHT22;58439;51.046;13.692;2022-08-11T15:22:39;37.70;9.00
70820;DHT22;58439;51.046;13.692;2022-08-11T15:25:26;38.10;8.90
70820;DHT22;58439;51.046;13.692;2022-08-11T15:27:55;38.10;8.70
70820;DHT22;58439;51.046;13.692;2022-08-11T15:30:43;37.90;8.70
70820;DHT22;58439;51.046;13.692;2022-08-11T15:33:32;37.90;8.80
70820;DHT22;58439;51.046;13.692;2022-08-11T15:36:20;38.10;8.60
70820;DHT22;58439;51.046;13.692;2022-08-11T15:39:26;38.00;8.60
70820;DHT22;58439;51.046;13.692;2022-08-11T15:42:03;37.70;8.60
70820;DHT22;58439;51.046;13.692;2022-08-11T15:45:13;37.40;8.90
70820;DHT22;58439;51.046;13.692;2022-08-11T15:48:15;37.70;8.80
70820;DHT22;58439;51.046;13.692;2022-08-11T15:50:51;37.60;9.00
70820;DHT22;58439;51.046;13.692;2022-08-11T15:53:31;37.70;9.00
70820;DHT22;58439;51.046;13.692;2022-08-11T15:56:01;37.80;8.90
70820;DHT22;58439;51.046;13.692;2022-08-11T15:58:33;37.90;8.80
70820;DHT22;58439;51.046;13.692;2022-08-11T16:01:44;37.90;8.90
70820;DHT22;58439;51.046;13.692;2022-08-11T16:04:34;38.00;8.70
70820;DHT22;58439;51.046;13.692;2022-08-11T16:07:22;37.80;8.50
70820;DHT22;58439;51.046;13.692;2022-08-11T16:10:27;37.40;8.60
70820;DHT22;58439;51.046;13.692;2022-08-11T16:13:04;37.00;8.80
70820;DHT22;58439;51.046;13.692;2022-08-11T16:15:54;37.00;9.00
70820;DHT22;58439;51.046;13.692;2022-08-11T16:18:50;36.90;9.10
70820;DHT22;58439;51.046;13.692;2022-08-11T16:21:35;36.90;9.10
70820;DHT22;58439;51.046;13.692;2022-08-11T16:24:11;37.00;9.00
70820;DHT22;58439;51.046;13.692;2022-08-11T16:27:02;37.10;9.10
70820;DHT22;58439;51.046;13.692;2022-08-11T16:29:43;37.10;9.10
70820;DHT22;58439;51.046;13.692;2022-08-11T16:32:16;37.00;9.00
70820;DHT22;58439;51.046;13.692;2022-08-11T16:34:56;36.70;9.40
70820;DHT22;58439;51.046;13.692;2022-08-11T16:37:46;36.60;9.40
70820;DHT22;58439;51.046;13.692;2022-08-11T16:40:34;36.70;9.40
70820;DHT22;58439;51.046;13.692;2022-08-11T16:43:05;36.70;9.30
70820;DHT22;58439;51.046;13.692;2022-08-11T16:45:54;36.70;9.20
70820;DHT22;58439;51.046;13.692;2022-08-11T16:48:41;36.30;9.50
70820;DHT22;58439;51.046;13.692;2022-08-11T16:51:11;35.80;9.80
70820;DHT22;58439;51.046;13.692;2022-08-11T16:53:41;35.70;9.90
70820;DHT22;58439;51.046;13.692;2022-08-11T16:56:45;35.60;10.00
70820;DHT22;58439;51.046;13.692;2022-08-11T16:59:36;35.40;10.10
70820;DHT22;58439;51.046;13.692;2022-08-11T17:02:08;35.50;10.20
70820;DHT22;58439;51.046;13.692;2022-08-11T17:04:52;35.60;10.20
70820;DHT22;58439;51.046;13.692;2022-08-11T17:07:45;35.60;10.20
70820;DHT22;58439;51.046;13.692;2022-08-11T17:10:35;35.10;10.40
70820;DHT22;58439;51.046;13.692;2022-08-11T17:13:37;34.70;11.60
70820;DHT22;58439;51.046;13.692;2022-08-11T17:16:10;34.40;11.00
70820;DHT22;58439;51.046;13.692;2022-08-11T17:18:50;34.10;11.30
70820;DHT22;58439;51.046;13.692;2022-08-11T17:21:30;33.60;11.50
70820;DHT22;58439;51.046;13.692;2022-08-11T17:24:06;32.60;12.20
70820;DHT22;58439;51.046;13.692;2022-08-11T17:26:41;31.60;12.80
70820;DHT22;58439;51.046;13.692;2022-08-11T17:29:24;30.70;13.80
70820;DHT22;58439;51.046;13.692;2022-08-11T17:31:58;30.00;14.40
70820;DHT22;58439;51.046;13.692;2022-08-11T17:34:51;29.50;14.90
70820;DHT22;58439;51.046;13.692;2022-08-11T17:37:40;29.10;15.40
70820;DHT22;58439;51.046;13.692;2022-08-11T17:40:11;28.80;15.70
70820;DHT22;58439;51.046;13.692;2022-08-11T17:42:42;28.60;16.00
70820;DHT22;58439;51.046;13.692;2022-08-11T17:45:28;28.50;16.10
70820;DHT22;58439;51.046;13.692;2022-08-11T17:48:17;28.40;16.20
70820;DHT22;58439;51.046;13.692;2022-08-11T17:50:59;28.30;16.30
70820;DHT22;58439;51.046;13.692;2022-08-11T17:53:31;28.30;16.40
70820;DHT22;58439;51.046;13.692;2022-08-11T17:56:48;28.60;16.30
70820;DHT22;58439;51.046;13.692;2022-08-11T17:59:48;28.70;16.10
70820;DHT22;58439;51.046;13.692;2022-08-11T18:02:48;28.50;16.30
70820;DHT22;58439;51.046;13.692;2022-08-11T18:05:41;28.30;16.40
70820;DHT22;58439;51.046;13.692;2022-08-11T18:08:12;28.00;17.60
70820;DHT22;58439;51.046;13.692;2022-08-11T18:11:00;27.70;16.80
70820;DHT22;58439;51.046;13.692;2022-08-11T18:14:09;27.60;17.20
70820;DHT22;58439;51.046;13.692;2022-08-11T18:16:57;27.50;17.30
70820;DHT22;58439;51.046;13.692;2022-08-11T18:19:44;27.50;17.10
70820;DHT22;58439;51.046;13.692;2022-08-11T18:22:37;27.60;17.20
70820;DHT22;58439;51.046;13.692;2022-08-11T18:25:33;27.50;17.20
70820;DHT22;58439;51.046;13.692;2022-08-11T18:28:31;27.40;17.40
70820;DHT22;58439;51.046;13.692;2022-08-11T18:31:24;27.10;17.70
70820;DHT22;58439;51.046;13.692;2022-08-11T18:34:13;26.90;17.90
70820;DHT22;58439;51.046;13.692;2022-08-11T18:37:05;26.80;18.30
70820;DHT22;58439;51.046;13.692;2022-08-11T18:40:04;26.60;18.40
70820;DHT22;58439;51.046;13.692;2022-08-11T18:43:01;26.40;18.60
70820;DHT22;58439;51.046;13.692;2022-08-11T18:46:00;26.30;18.70
70820;DHT22;58439;51.046;13.692;2022-08-11T18:48:56;26.10;18.90
70820;DHT22;58439;51.046;13.692;2022-08-11T18:51:51;26.00;19.30
70820;DHT22;58439;51.046;13.692;2022-08-11T18:54:40;25.90;19.60
70820;DHT22;58439;51.046;13.692;2022-08-11T18:57:29;25.80;19.70
70820;DHT22;58439;51.046;13.692;2022-08-11T19:00:21;25.70;20.10
70820;DHT22;58439;51.046;13.692;2022-08-11T19:03:10;25.60;20.20
70820;DHT22;58439;51.046;13.692;2022-08-11T19:06:17;25.60;20.40
70820;DHT22;58439;51.046;13.692;2022-08-11T19:09:11;25.50;20.70
70820;DHT22;58439;51.046;13.692;2022-08-11T19:12:05;25.40;20.80
70820;DHT22;58439;51.046;13.692;2022-08-11T19:14:54;25.30;20.90
70820;DHT22;58439;51.046;13.692;2022-08-11T19:17:44;25.20;21.10
70820;DHT22;58439;51.046;13.692;2022-08-11T19:20:32;25.10;21.60
70820;DHT22;58439;51.046;13.692;2022-08-11T19:23:30;25.00;21.90
70820;DHT22;58439;51.046;13.692;2022-08-11T19:26:20;24.80;22.20
70820;DHT22;58439;51.046;13.692;2022-08-11T19:29:10;24.60;22.60
70820;DHT22;58439;51.046;13.692;2022-08-11T19:32:21;24.50;23.00
70820;DHT22;58439;51.046;13.692;2022-08-11T19:35:09;24.40;23.20
70820;DHT22;58439;51.046;13.692;2022-08-11T19:37:57;24.30;23.30
70820;DHT22;58439;51.046;13.692;2022-08-11T19:40:46;24.30;23.60
70820;DHT22;58439;51.046;13.692;2022-08-11T19:43:33;24.20;23.70
70820;DHT22;58439;51.046;13.692;2022-08-11T19:46:22;24.10;23.90
70820;DHT22;58439;51.046;13.692;2022-08-11T19:49:11;24.00;23.90
70820;DHT22;58439;51.046;13.692;2022-08-11T19:51:58;24.00;24.30
70820;DHT22;58439;51.046;13.692;2022-08-11T19:54:44;23.90;24.50
70820;DHT22;58439;51.046;13.692;2022-08-11T19:57:34;23.90;24.90
70820;DHT22;58439;51.046;13.692;2022-08-11T20:00:22;23.70;25.00
70820;DHT22;58439;51.046;13.692;2022-08-11T20:03:10;23.60;25.20
70820;DHT22;58439;51.046;13.692;2022-08-11T20:06:00;23.50;25.50
70820;DHT22;58439;51.046;13.692;2022-08-11T20:08:57;23.30;25.60
70820;DHT22;58439;51.046;13.692;2022-08-11T20:11:52;23.20;26.10
70820;DHT22;58439;51.046;13.692;2022-08-11T20:14:42;23.00;26.30
70820;DHT22;58439;51.046;13.692;2022-08-11T20:17:32;22.90;26.50
70820;DHT22;58439;51.046;13.692;2022-08-11T20:20:25;22.90;26.80
70820;DHT22;58439;51.046;13.692;2022-08-11T20:23:16;22.80;27.00
70820;DHT22;58439;51.046;13.692;2022-08-11T20:26:04;22.80;27.10
70820;DHT22;58439;51.046;13.692;2022-08-11T20:29:00;22.70;27.30
70820;DHT22;58439;51.046;13.692;2022-08-11T20:31:47;22.50;27.50
70820;DHT22;58439;51.046;13.692;2022-08-11T20:34:37;22.40;27.50
70820;DHT22;58439;51.046;13.692;2022-08-11T20:37:24;22.40;27.90
70820;DHT22;58439;51.046;13.692;2022-08-11T20:40:24;22.30;28.00
70820;DHT22;58439;51.046;13.692;2022-08-11T20:43:13;22.20;28.20
70820;DHT22;58439;51.046;13.692;2022-08-11T20:46:20;22.20;28.30
70820;DHT22;58439;51.046;13.692;2022-08-11T20:49:09;22.00;28.30
70820;DHT22;58439;51.046;13.692;2022-08-11T20:52:16;22.00;28.40
70820;DHT22;58439;51.046;13.692;2022-08-11T20:55:06;21.90;28.20
70820;DHT22;58439;51.046;13.692;2022-08-11T20:58:15;21.90;28.00
70820;DHT22;58439;51.046;13.692;2022-08-11T21:01:24;21.90;27.90
70820;DHT22;58439;51.046;13.692;2022-08-11T21:04:12;21.90;28.30
70820;DHT22;58439;51.046;13.692;2022-08-11T21:07:02;21.70;28.40
70820;DHT22;58439;51.046;13.692;2022-08-11T21:09:55;21.60;28.70
70820;DHT22;58439;51.046;13.692;2022-08-11T21:13:06;21.60;29.20
70820;DHT22;58439;51.046;13.692;2022-08-11T21:16:01;21.50;29.30
70820;DHT22;58439;51.046;13.692;2022-08-11T21:19:19;21.40;29.60
70820;DHT22;58439;51.046;13.692;2022-08-11T21:22:49;21.40;29.70
70820;DHT22;58439;51.046;13.692;2022-08-11T21:25:44;21.30;29.60
70820;DHT22;58439;51.046;13.692;2022-08-11T21:28:37;21.30;29.50
70820;DHT22;58439;51.046;13.692;2022-08-11T21:31:25;21.30;29.50
70820;DHT22;58439;51.046;13.692;2022-08-11T21:34:17;21.20;29.70
70820;DHT22;58439;51.046;13.692;2022-08-11T21:37:07;21.20;30.00
70820;DHT22;58439;51.046;13.692;2022-08-11T21:39:58;21.10;30.10
70820;DHT22;58439;51.046;13.692;2022-08-11T21:42:47;21.00;30.80
70820;DHT22;58439;51.046;13.692;2022-08-11T21:45:36;20.90;31.10
70820;DHT22;58439;51.046;13.692;2022-08-11T21:48:25;20.90;31.40
70820;DHT22;58439;51.046;13.692;2022-08-11T21:51:12;20.90;31.70